Latest Weather Observations for Burnie Port

IDT60801

Issued at 3:51 pm EDT Monday 30 March 2020 (issued every 10 minutes, with the page automatically refreshed every 10 minutes)

About weather observations | Map of weather stations | Latest weather observations for TAS | Other Formats
Station Details ID: 091344 Name: BURNIE NTC AWS Lat: -41.05 Lon: 145.91 Height: 0.0 m
Data from the previous 72 hours. | See also: Recent months for locations in Tasmania
Date/Time
EDT
Temp
°C
App
Temp
°C
Dew
Point
°C
Rel
Hum
%
Delta-T
°C
Wind Press
QNH
hPa
Press
MSL
hPa
Rain since
9am
mm
Dir  Spd
km/h
Gust
km/h
Spd
kts
Gust
kts
30/03:30pm 16.8 - - - - NW 20 28 11 15 1008.1 1008.1 -
30/03:00pm 16.8 - - - - WNW 17 28 9 15 1008.1 1008.1 -
30/02:30pm 15.7 - - - - W 11 22 6 12 1008.2 1008.2 -
30/02:00pm 16.4 - - - - WNW 22 35 12 19 1008.6 1008.6 -
30/01:58pm 16.6 - - - - NW 24 43 13 23 1008.6 1008.6 -
30/01:30pm 16.7 - - - - NW 37 48 20 26 1008.5 1008.5 -
30/01:00pm 17.0 - - - - NW 32 39 17 21 1008.6 1008.6 -
30/12:30pm 16.9 - - - - NNW 26 33 14 18 1008.8 1008.8 -
30/12:00pm 16.5 - - - - NNW 24 30 13 16 1008.9 1008.9 -
30/11:30am 16.4 - - - - NW 22 32 12 17 1009.2 1009.2 -
30/11:00am 16.1 - - - - NW 22 30 12 16 1009.6 1009.6 -
30/10:30am 15.6 - - - - NW 19 24 10 13 1009.5 1009.5 -
30/10:00am 14.9 - - - - NW 13 17 7 9 1009.5 1009.5 -
30/09:30am 15.0 - - - - NW 9 15 5 8 1009.3 1009.3 -
30/09:00am 15.0 - - - - WNW 4 11 2 6 1008.9 1008.9 -
30/08:30am 14.5 - - - - WNW 7 15 4 8 1008.6 1008.6 -
30/08:00am 14.3 - - - - WNW 11 20 6 11 1008.3 1008.3 -
30/07:30am 14.3 - - - - WNW 2 9 1 5 1007.8 1007.8 -
30/07:00am 14.7 - - - - WNW 13 22 7 12 1007.7 1007.7 -
30/06:30am 14.7 - - - - WNW 4 13 2 7 1007.4 1007.4 -
30/06:00am 15.0 - - - - WNW 4 11 2 6 1007.5 1007.5 -
30/05:30am 15.0 - - - - WNW 6 15 3 8 1007.4 1007.4 -
30/05:00am 15.3 - - - - WNW 11 19 6 10 1007.4 1007.4 -
30/04:30am 15.4 - - - - WNW 11 19 6 10 1007.3 1007.3 -
30/04:00am 15.7 - - - - NW 6 11 3 6 1007.1 1007.1 -
30/03:30am 15.5 - - - - CALM 0 7 0 4 1007.2 1007.2 -
30/03:00am 15.5 - - - - W 2 9 1 5 1007.7 1007.7 -
30/02:30am 15.7 - - - - W 4 11 2 6 1008.0 1008.0 -
30/02:00am 15.8 - - - - W 4 11 2 6 1008.1 1008.1 -
30/01:30am 15.9 - - - - W 2 7 1 4 1008.0 1008.0 -
30/01:00am 15.9 - - - - WNW 4 9 2 5 1008.3 1008.3 -
30/12:30am 16.0 - - - - WNW 6 9 3 5 1008.8 1008.8 -
30/12:00am 16.3 - - - - WNW 6 15 3 8 1008.9 1008.9 -
 
Date/Time
EDT
Temp
°C
App
Temp
°C
Dew
Point
°C
Rel
Hum
%
Delta-T
°C
Wind Press
QNH
hPa
Press
MSL
hPa
Rain since
9am
mm
Dir  Spd
km/h
Gust
km/h
Spd
kts
Gust
kts
29/11:30pm 16.7 - - - - WNW 7 17 4 9 1008.6 1008.6 -
29/11:00pm 17.2 - - - - NW 17 24 9 13 1008.3 1008.3 -
29/10:30pm 17.8 - - - - NW 28 37 15 20 1008.2 1008.2 -
29/10:00pm 18.0 - - - - NNW 33 41 18 22 1008.3 1008.3 -
29/09:30pm 17.9 - - - - N 28 35 15 19 1008.3 1008.3 -
29/09:00pm 17.7 - - - - N 22 30 12 16 1008.3 1008.3 -
29/08:30pm 17.6 - - - - N 17 22 9 12 1008.2 1008.2 -
29/08:00pm 17.4 - - - - NNE 22 28 12 15 1008.0 1008.0 -
29/07:30pm 17.2 - - - - NE 20 26 11 14 1007.9 1007.9 -
29/07:00pm 17.2 - - - - NE 22 30 12 16 1007.9 1007.9 -
29/06:30pm 16.8 - - - - NE 24 30 13 16 1007.7 1007.7 -
29/06:00pm 16.7 - - - - NE 19 20 10 11 1007.7 1007.7 -
29/05:30pm 16.7 - - - - NE 15 19 8 10 1008.1 1008.1 -
29/05:00pm 16.7 - - - - ENE 6 13 3 7 1007.7 1007.7 -
29/04:30pm 16.5 - - - - NE 9 19 5 10 1007.5 1007.5 -
29/04:00pm 16.7 - - - - N 9 19 5 10 1009.0 1009.0 -
29/03:30pm 16.6 - - - - NNE 11 19 6 10 1009.6 1009.6 -
29/03:00pm 16.4 - - - - ENE 4 9 2 5 1009.0 1009.0 -
29/02:30pm 16.8 - - - - E 7 13 4 7 1009.8 1009.8 -
29/02:00pm 17.1 - - - - E 9 15 5 8 1010.0 1010.0 -
29/01:30pm 17.3 - - - - ESE 11 19 6 10 1010.3 1010.3 -
29/01:00pm 17.3 - - - - ESE 22 28 12 15 1010.6 1010.6 -
29/12:30pm 17.4 - - - - ESE 20 26 11 14 1011.2 1011.2 -
29/12:00pm 17.6 - - - - ESE 32 37 17 20 1011.3 1011.3 -
29/11:30am 17.8 - - - - ESE 24 32 13 17 1011.8 1011.8 -
29/11:00am 17.8 - - - - ESE 26 30 14 16 1012.3 1012.3 -
29/10:30am 17.9 - - - - ESE 22 26 12 14 1012.6 1012.6 -
29/10:00am 17.9 - - - - ESE 24 30 13 16 1012.7 1012.7 -
29/09:30am 17.9 - - - - ESE 13 22 7 12 1013.0 1013.0 -
29/09:00am 17.9 - - - - ESE 20 28 11 15 1012.7 1012.7 -
29/08:30am 17.9 - - - - ESE 22 30 12 16 1012.9 1012.9 -
29/08:00am 17.9 - - - - SE 20 28 11 15 1013.1 1013.1 -
29/07:30am 18.0 - - - - SE 20 35 11 19 1012.9 1012.9 -
29/07:00am 18.0 - - - - ESE 26 33 14 18 1013.0 1013.0 -
29/06:30am 17.9 - - - - ESE 24 32 13 17 1013.0 1013.0 -
29/06:00am 17.9 - - - - ESE 24 32 13 17 1013.0 1013.0 -
29/05:30am 18.0 - - - - SE 26 33 14 18 1013.1 1013.1 -
29/05:00am 17.8 - - - - SE 26 33 14 18 1013.1 1013.1 -
29/04:30am 17.8 - - - - ESE 20 24 11 13 1013.8 1013.8 -
29/04:00am 17.8 - - - - SE 20 24 11 13 1014.2 1014.2 -
29/03:30am 17.8 - - - - SE 20 26 11 14 1014.6 1014.6 -
29/03:00am 17.9 - - - - SE 11 19 6 10 1015.5 1015.5 -
29/02:30am 17.9 - - - - SE 22 28 12 15 1015.6 1015.6 -
29/02:00am 17.9 - - - - SE 24 32 13 17 1015.7 1015.7 -
29/01:30am 17.9 - - - - ESE 24 30 13 16 1015.9 1015.9 -
29/01:00am 17.9 - - - - SE 24 30 13 16 1016.3 1016.3 -
29/12:30am 17.9 - - - - SE 26 33 14 18 1016.6 1016.6 -
29/12:00am 18.0 - - - - SE 24 30 13 16 1016.8 1016.8 -
 
Date/Time
EDT
Temp
°C
App
Temp
°C
Dew
Point
°C
Rel
Hum
%
Delta-T
°C
Wind Press
QNH
hPa
Press
MSL
hPa
Rain since
9am
mm
Dir  Spd
km/h
Gust
km/h
Spd
kts
Gust
kts
28/11:30pm 18.2 - - - - SE 26 33 14 18 1017.1 1017.1 -
28/11:00pm 18.1 - - - - SE 22 28 12 15 1017.3 1017.3 -
28/10:30pm 18.1 - - - - SE 22 28 12 15 1017.6 1017.6 -
28/10:00pm 18.1 - - - - SE 24 30 13 16 1017.6 1017.6 -
28/09:30pm 18.1 - - - - SE 22 26 12 14 1017.7 1017.7 -
28/09:00pm 18.2 - - - - SE 19 24 10 13 1017.9 1017.9 -
28/08:30pm 18.2 - - - - SE 17 22 9 12 1017.9 1017.9 -
28/08:00pm 18.0 - - - - SE 19 24 10 13 1017.8 1017.8 -
28/07:30pm 18.0 - - - - SE 17 22 9 12 1017.8 1017.8 -
28/07:00pm 18.0 - - - - ESE 19 22 10 12 1017.9 1017.9 -
28/06:30pm 18.0 - - - - ESE 15 20 8 11 1018.1 1018.1 -
28/06:00pm 18.1 - - - - ESE 19 24 10 13 1018.1 1018.1 -
28/05:30pm 18.1 - - - - ESE 22 26 12 14 1018.4 1018.4 -
28/05:00pm 17.9 - - - - ESE 20 24 11 13 1018.7 1018.7 -
28/04:30pm 17.9 - - - - ESE 20 22 11 12 1018.9 1018.9 -
28/04:00pm 17.9 - - - - ESE 20 24 11 13 1019.2 1019.2 -
28/03:30pm 17.9 - - - - ESE 19 22 10 12 1019.6 1019.6 -
28/03:00pm 17.8 - - - - ESE 19 22 10 12 1019.8 1019.8 -
28/02:30pm 17.8 - - - - ESE 19 22 10 12 1020.1 1020.1 -
28/02:00pm 17.8 - - - - ESE 26 28 14 15 1020.5 1020.5 -
28/01:30pm 17.7 - - - - ESE 24 30 13 16 1020.9 1020.9 -
28/01:00pm 17.8 - - - - ESE 22 28 12 15 1021.4 1021.4 -
28/12:30pm 17.6 - - - - ESE 24 28 13 15 1021.6 1021.6 -
28/12:00pm 17.7 - - - - ESE 26 33 14 18 1021.8 1021.8 -
28/11:30am 17.6 - - - - ESE 26 32 14 17 1022.2 1022.2 -
28/11:00am 17.4 - - - - ESE 28 33 15 18 1022.4 1022.4 -
28/10:30am 17.5 - - - - ESE 28 33 15 18 1022.5 1022.5 -
28/10:00am 17.5 - - - - ESE 28 32 15 17 1022.6 1022.6 -
28/09:30am 17.5 - - - - ESE 26 30 14 16 1022.5 1022.5 -
28/09:00am 17.3 - - - - SE 26 32 14 17 1022.6 1022.6 -
28/08:30am 17.2 - - - - SE 24 30 13 16 1022.6 1022.6 -
28/08:00am 17.1 - - - - SE 22 28 12 15 1022.6 1022.6 -
28/07:30am 17.0 - - - - SE 22 30 12 16 1022.3 1022.3 -
28/07:00am 17.1 - - - - SE 20 30 11 16 1022.3 1022.3 -
28/06:30am 17.1 - - - - SE 22 30 12 16 1022.3 1022.3 -
28/06:00am 17.0 - - - - SE 22 26 12 14 1022.3 1022.3 -
28/05:30am 17.0 - - - - SE 22 30 12 16 1022.4 1022.4 -
28/05:00am 17.1 - - - - SE 22 28 12 15 1022.6 1022.6 -
28/04:30am 17.2 - - - - SE 24 30 13 16 1022.7 1022.7 -
28/04:00am 17.1 - - - - SE 24 28 13 15 1022.7 1022.7 -
28/03:30am 17.0 - - - - SE 24 30 13 16 1023.0 1023.0 -
28/03:00am 17.0 - - - - SE 22 28 12 15 1023.2 1023.2 -
28/02:30am 17.1 - - - - SE 22 28 12 15 1023.4 1023.4 -
28/02:00am 17.0 - - - - SE 22 28 12 15 1023.4 1023.4 -
28/01:30am 16.9 - - - - SE 22 26 12 14 1023.7 1023.7 -
28/01:00am 17.0 - - - - SE 22 30 12 16 1023.8 1023.8 -
28/12:30am 17.2 - - - - SE 22 28 12 15 1023.8 1023.8 -
28/12:00am 17.1 - - - - SE 26 32 14 17 1023.9 1023.9 -
 
Date/Time
EDT
Temp
°C
App
Temp
°C
Dew
Point
°C
Rel
Hum
%
Delta-T
°C
Wind Press
QNH
hPa
Press
MSL
hPa
Rain since
9am
mm
Dir  Spd
km/h
Gust
km/h
Spd
kts
Gust
kts
27/11:30pm 17.5 - - - - SE 22 28 12 15 1024.0 1024.0 -
27/11:00pm 17.2 - - - - SSE 15 24 8 13 1024.1 1024.1 -
27/10:30pm 16.2 - - - - S 13 17 7 9 1024.3 1024.3 -
27/10:00pm 16.1 - - - - S 13 17 7 9 1024.3 1024.3 -
27/09:30pm 16.3 - - - - S 11 15 6 8 1024.3 1024.3 -
27/09:00pm 16.2 - - - - S 13 15 7 8 1024.1 1024.1 -
27/08:30pm 16.5 - - - - SSE 9 15 5 8 1024.1 1024.1 -
27/08:00pm 17.1 - - - - SE 13 17 7 9 1024.0 1024.0 -
27/07:30pm 17.3 - - - - ESE 13 17 7 9 1024.0 1024.0 -
27/07:00pm 17.3 - - - - ESE 15 17 8 9 1024.2 1024.2 -
27/06:30pm 17.3 - - - - ESE 17 19 9 10 1024.1 1024.1 -
27/06:00pm 17.3 - - - - ESE 15 17 8 9 1024.2 1024.2 -
27/05:30pm 17.3 - - - - ESE 15 17 8 9 1024.3 1024.3 -
27/05:00pm 17.2 - - - - ESE 17 19 9 10 1024.4 1024.4 -
27/04:30pm 17.2 - - - - ESE 15 17 8 9 1024.6 1024.6 -
27/04:00pm 17.0 - - - - ESE 15 19 8 10 1024.7 1024.7 -

Other formats

Comma delimited format used in spreadsheet applications
http://www.bom.gov.au/fwo/IDT60801/IDT60801.95963.axf

JavaScript Object Notation format (JSON) in row-major order
http://www.bom.gov.au/fwo/IDT60801/IDT60801.95963.json

Data quality

Most of these data are generated automatically and are frequently updated. Quality checks on data are not normally performed. It is possible for incorrect values to appear. Refer to information at About Latest Weather Observations and please check the disclaimer before using these data.